APL New Jersey — A8NM6 — position and weather

sailwx.info

Track history (hours):
 
Tides and Currents Weather Stations Pressure Air Temp Water Temp Dewpoint Dewpoint Depression Visibility Wind Speed Wind Dir Waves Ship Positions

APL New Jersey

Last reported at 2015-Aug-30 08:33 UTC. Time now 2015-Sep-03 19:19 UTC.
Position N 38°26' W 124°11'.

Length 293 m; draft 9.8 m.

Type: Cargo ship. MMSI: 636013522.

Date/timePositionNaut miles runAvg speedWind from/ knotsBaromVisibWave heightAir tempDewpointWater temp
2015-Aug-30 08:33N 38°26' W 124°11'1716.8
2015-Aug-30 07:33N 38°20' W 123°50'1716.9
2015-Aug-30 06:33N 38°13' W 123°31'1717.1
2015-Aug-30 05:33N 38°03' W 123°14'1717.3
2015-Aug-30 04:33N 37°53' W 122°56'1414.3
2015-Aug-30 03:33N 37°46' W 122°40'1313.0
2015-Aug-30 02:33N 37°49' W 122°23'4 3.9
2015-Aug-30 01:32N 37°48' W 122°19'0 0.0
2015-Aug-30 00:32N 37°48' W 122°19'0 0.0
2015-Aug-29 23:32N 37°48' W 122°19'0 0.0
2015-Aug-29 22:32N 37°48' W 122°19'0 0.0
2015-Aug-29 21:32N 37°48' W 122°19'0 0.0
2015-Aug-29 20:32N 37°48' W 122°19'0 0.0
2015-Aug-29 19:32N 37°48' W 122°19'0 0.0
2015-Aug-29 18:32N 37°48' W 122°19'0 0.0
2015-Aug-29 17:32N 37°48' W 122°19'0 0.0
2015-Aug-29 16:32N 37°48' W 122°19'0 0.0
2015-Aug-29 15:32N 37°48' W 122°19'0 0.0
2015-Aug-29 14:32N 37°48' W 122°19'0 0.0
2015-Aug-29 13:32N 37°48' W 122°19'0 0.0
2015-Aug-29 12:32N 37°48' W 122°19'0 0.0
2015-Aug-29 11:32N 37°48' W 122°19'0 0.0
2015-Aug-29 10:32N 37°48' W 122°19'0 0.0
2015-Aug-29 09:32N 37°48' W 122°19'0 0.0
2015-Aug-29 08:32N 37°48' W 122°19'0 0.0
2015-Aug-29 07:32N 37°48' W 122°19'0 0.0
2015-Aug-29 06:32N 37°48' W 122°19'0 0.0
2015-Aug-29 05:32N 37°48' W 122°19'0 0.0
2015-Aug-29 04:32N 37°48' W 122°19'0 0.0
2015-Aug-29 03:32N 37°48' W 122°19'0 0.0
2015-Aug-29 02:32N 37°48' W 122°19'1 0.7
2015-Aug-29 01:33N 37°48' W 122°18'6 6.1
2015-Aug-29 00:33N 37°49' W 122°25'3 2.7
2015-Aug-28 23:33N 37°49' W 122°29'9 8.6
2015-Aug-28 22:33N 37°46' W 122°39'6 5.9
2015-Aug-28 21:33N 37°40' W 122°40'1514.8
2015-Aug-28 20:33N 37°25' W 122°40'2020.0
2015-Aug-28 19:34N 37°05' W 122°45'1919.2
2015-Aug-28 18:33N 36°46' W 122°42'2020.0
2015-Aug-28 17:33N 36°28' W 122°31'2019.8
2015-Aug-28 16:33N 36°10' W 122°21'2019.8
2015-Aug-28 15:33N 35°52' W 122°11'4120.3
2015-Aug-28 13:33N 35°17' W 121°45'2020.0
2015-Aug-28 12:33N 35°00' W 121°32'2020.0
2015-Aug-28 11:33N 34°44' W 121°18'1919.1
2015-Aug-28 10:33N 34°29' W 121°03'2020.4
2015-Aug-28 09:33N 34°23' W 120°40'2420.7
2015-Aug-28 08:24N 34°17' W 120°11'2121.0
2015-Aug-28 07:23N 34°12' W 119°47'1720.7
2015-Aug-28 06:33N 34°07' W 119°27'2019.8
2015-Aug-28 05:33N 33°59' W 119°05'1312.5
2015-Aug-28 04:33N 33°53' W 118°52'1211.9
2015-Aug-28 03:33N 33°47' W 118°39'1211.8
2015-Aug-28 02:33N 33°41' W 118°27'1010.4
2015-Aug-28 01:33N 33°39' W 118°14'6 6.0
2015-Aug-28 00:33N 33°45' W 118°16'1 0.8
2015-Aug-27 23:28N 33°46' W 118°15'0 0.0
2015-Aug-27 22:31N 33°46' W 118°15'0 0.0
2015-Aug-27 21:31N 33°46' W 118°15'0 0.0
2015-Aug-27 20:28N 33°46' W 118°15'0 0.0
2015-Aug-27 19:31N 33°46' W 118°15'0 0.0
2015-Aug-27 18:31N 33°46' W 118°15'0 0.0
2015-Aug-27 17:31N 33°46' W 118°15'0 0.0
2015-Aug-27 16:31N 33°46' W 118°15'0 0.0
2015-Aug-27 15:31N 33°46' W 118°15'0 0.0
2015-Aug-27 14:31N 33°46' W 118°15'0 0.0
2015-Aug-27 13:31N 33°46' W 118°15'0 0.0
2015-Aug-27 12:31N 33°46' W 118°15'0 0.0
2015-Aug-27 11:31N 33°46' W 118°15'0 0.0
2015-Aug-27 10:31N 33°46' W 118°15'0 0.0
2015-Aug-27 09:31N 33°46' W 118°15'0 0.0
2015-Aug-27 08:31N 33°46' W 118°15'0 0.0
2015-Aug-27 07:31N 33°46' W 118°15'0 0.0
2015-Aug-27 06:31N 33°46' W 118°15'0 0.0
2015-Aug-27 05:31N 33°46' W 118°15'0 0.0
2015-Aug-27 04:31N 33°46' W 118°15'0 0.0
2015-Aug-27 03:31N 33°46' W 118°15'0 0.0
2015-Aug-27 02:31N 33°46' W 118°15'0 0.0
2015-Aug-27 01:31N 33°46' W 118°15'0 0.0
2015-Aug-27 00:31N 33°46' W 118°15'0 0.0
2015-Aug-26 23:31N 33°46' W 118°15'0 0.0
2015-Aug-26 22:31N 33°46' W 118°15'0 0.0
2015-Aug-26 21:31N 33°46' W 118°15'0 0.0
2015-Aug-26 20:31N 33°46' W 118°15'0 0.0
2015-Aug-26 19:31N 33°46' W 118°15'0 0.0
2015-Aug-26 18:31N 33°46' W 118°15'0 0.0
2015-Aug-26 17:31N 33°46' W 118°15'0 0.0
2015-Aug-26 16:31N 33°46' W 118°15'0 0.0
2015-Aug-26 15:31N 33°46' W 118°15'0 0.0
2015-Aug-26 14:31N 33°46' W 118°15'0 0.0
2015-Aug-26 13:31N 33°46' W 118°15'0 0.0
2015-Aug-26 12:31N 33°46' W 118°15'0 0.0
2015-Aug-26 11:31N 33°46' W 118°15'0 0.0
2015-Aug-26 10:31N 33°46' W 118°15'0 0.0
2015-Aug-26 09:31N 33°46' W 118°15'0 0.0
2015-Aug-26 08:31N 33°46' W 118°15'0 0.0
2015-Aug-26 07:31N 33°46' W 118°15'0 0.0
2015-Aug-26 06:31N 33°46' W 118°15'0 0.0
2015-Aug-26 05:31N 33°46' W 118°15'0 0.0
2015-Aug-26 04:31N 33°46' W 118°15'0 0.0
2015-Aug-26 03:31N 33°46' W 118°15'0 0.0
2015-Aug-26 02:31N 33°46' W 118°15'0 0.0
2015-Aug-26 01:31N 33°46' W 118°15'0 0.0
2015-Aug-26 00:31N 33°46' W 118°15'0 0.0
2015-Aug-25 23:31N 33°46' W 118°15'0 0.0
2015-Aug-25 22:31N 33°46' W 118°15'0 0.0
2015-Aug-25 21:31N 33°46' W 118°15'0 0.0
2015-Aug-25 20:31N 33°46' W 118°15'0 0.0
2015-Aug-25 19:31N 33°46' W 118°15'0 0.0
2015-Aug-25 18:31N 33°46' W 118°15'0 0.0
2015-Aug-25 17:31N 33°46' W 118°15'0 0.0
2015-Aug-25 16:31N 33°46' W 118°15'0 0.0
2015-Aug-25 15:31N 33°46' W 118°15'0 0.0
2015-Aug-25 14:31N 33°46' W 118°15'0 0.0
2015-Aug-25 13:31N 33°46' W 118°15'0 0.0
2015-Aug-25 12:31N 33°46' W 118°15'0 0.0
2015-Aug-25 11:31N 33°46' W 118°15'0 0.0
2015-Aug-25 10:31N 33°46' W 118°15'0 0.0
2015-Aug-25 09:31N 33°46' W 118°15'0 0.0
2015-Aug-25 08:31N 33°46' W 118°15'0 0.0
2015-Aug-25 07:31N 33°46' W 118°15'0 0.0
2015-Aug-25 06:31N 33°46' W 118°15'0 0.0
2015-Aug-25 05:31N 33°46' W 118°15'0 0.0
2015-Aug-25 04:31N 33°46' W 118°15'0 0.0
2015-Aug-25 03:31N 33°46' W 118°15'0 0.0
2015-Aug-25 02:31N 33°46' W 118°15'0 0.0
2015-Aug-25 01:31N 33°46' W 118°15'0 0.0
2015-Aug-25 00:31N 33°46' W 118°15'0 0.0
2015-Aug-24 23:31N 33°46' W 118°15'0 0.0
2015-Aug-24 22:31N 33°46' W 118°15'0 0.0
2015-Aug-24 21:31N 33°46' W 118°15'0 0.0
2015-Aug-24 20:31N 33°46' W 118°15'0 0.0
2015-Aug-24 19:31N 33°46' W 118°15'0 0.0
2015-Aug-24 18:31N 33°46' W 118°15'0 0.0
2015-Aug-24 17:31N 33°46' W 118°15'0 0.0
2015-Aug-24 16:31N 33°46' W 118°15'0 0.0
2015-Aug-24 15:31N 33°46' W 118°15'0 0.0
2015-Aug-24 14:31N 33°46' W 118°15'0 0.0
2015-Aug-24 13:31N 33°46' W 118°15'2 2.2
2015-Aug-24 12:33N 33°44' W 118°16'7 7.5
2015-Aug-24 11:33N 33°36' W 118°16'10 9.5
2015-Aug-24 10:33N 33°39' W 118°27'1110.7
2015-Aug-24 09:33N 33°44' W 118°38'1110.9
2015-Aug-24 08:33N 33°49' W 118°49'1111.3
2015-Aug-24 07:33N 33°55' W 119°01'1918.7
2015-Aug-24 06:33N 34°04' W 119°21'2120.7
2015-Aug-24 05:33N 34°09' W 119°45'2220.4
2015-Aug-24 04:30N 34°15' W 120°10'1920.2
2015-Aug-24 03:33N 34°20' W 120°33'1817.8
2015-Aug-24 02:33N 34°24' W 120°54'1514.8
2015-Aug-24 01:33N 34°29' W 121°10'2019.9
2015-Aug-24 00:33N 34°36' W 121°33'2019.9
2015-Aug-23 23:33N 34°44' W 121°55'2019.8
2015-Aug-23 22:33N 34°51' W 122°18'2220.1
2015-Aug-23 21:29N 34°59' W 122°43'1920.4
2015-Aug-23 20:33N 35°05' W 123°04'2020.3
2015-Aug-23 19:33N 35°13' W 123°27'2020.1
2015-Aug-23 18:33N 35°20' W 123°50'4920.2
2015-Aug-23 16:08N 35°37' W 124°46'1520.0
2015-Aug-23 15:23N 35°43' W 125°03'2020.0
2015-Aug-23 14:24N 35°53' W 125°24'1820.1
2015-Aug-23 13:30N 36°02' W 125°43'2319.9
2015-Aug-23 12:20N 36°14' W 126°08'1519.8
2015-Aug-23 11:33N 36°22' W 126°24'2020.0
2015-Aug-23 10:33N 36°32' W 126°46'2019.9
2015-Aug-23 09:33N 36°43' W 127°07'30219.7
2015-Aug-22 18:11N 39°29' W 132°28'2019.6
2015-Aug-22 17:10N 39°40' W 132°49'1920.3
2015-Aug-22 16:15N 39°50' W 133°10'  
Track history (hours):
 
Tides and Currents Weather Stations Pressure Air Temp Water Temp Dewpoint Dewpoint Depression Visibility Wind Speed Wind Dir Waves Ship Positions

APL New Jersey

Last reported at 2015-Aug-30 08:33 UTC. Time now 2015-Sep-03 19:19 UTC.
Position N 38°26' W 124°11'.

Length 293 m; draft 9.8 m.

Type: Cargo ship. MMSI: 636013522.

Date/timePositionNaut miles runAvg speedWind from/ knotsBaromVisibWave heightAir tempDewpointWater temp
2015-Aug-30 08:33N 38°26' W 124°11'1716.8
2015-Aug-30 07:33N 38°20' W 123°50'1716.9
2015-Aug-30 06:33N 38°13' W 123°31'1717.1
2015-Aug-30 05:33N 38°03' W 123°14'1717.3
2015-Aug-30 04:33N 37°53' W 122°56'1414.3
2015-Aug-30 03:33N 37°46' W 122°40'1313.0
2015-Aug-30 02:33N 37°49' W 122°23'4 3.9
2015-Aug-30 01:32N 37°48' W 122°19'0 0.0
2015-Aug-30 00:32N 37°48' W 122°19'0 0.0
2015-Aug-29 23:32N 37°48' W 122°19'0 0.0
2015-Aug-29 22:32N 37°48' W 122°19'0 0.0
2015-Aug-29 21:32N 37°48' W 122°19'0 0.0
2015-Aug-29 20:32N 37°48' W 122°19'0 0.0
2015-Aug-29 19:32N 37°48' W 122°19'0 0.0
2015-Aug-29 18:32N 37°48' W 122°19'0 0.0
2015-Aug-29 17:32N 37°48' W 122°19'0 0.0
2015-Aug-29 16:32N 37°48' W 122°19'0 0.0
2015-Aug-29 15:32N 37°48' W 122°19'0 0.0
2015-Aug-29 14:32N 37°48' W 122°19'0 0.0
2015-Aug-29 13:32N 37°48' W 122°19'0 0.0
2015-Aug-29 12:32N 37°48' W 122°19'0 0.0
2015-Aug-29 11:32N 37°48' W 122°19'0 0.0
2015-Aug-29 10:32N 37°48' W 122°19'0 0.0
2015-Aug-29 09:32N 37°48' W 122°19'0 0.0
2015-Aug-29 08:32N 37°48' W 122°19'0 0.0
2015-Aug-29 07:32N 37°48' W 122°19'0 0.0
2015-Aug-29 06:32N 37°48' W 122°19'0 0.0
2015-Aug-29 05:32N 37°48' W 122°19'0 0.0
2015-Aug-29 04:32N 37°48' W 122°19'0 0.0
2015-Aug-29 03:32N 37°48' W 122°19'0 0.0
2015-Aug-29 02:32N 37°48' W 122°19'1 0.7
2015-Aug-29 01:33N 37°48' W 122°18'6 6.1
2015-Aug-29 00:33N 37°49' W 122°25'3 2.7
2015-Aug-28 23:33N 37°49' W 122°29'9 8.6
2015-Aug-28 22:33N 37°46' W 122°39'6 5.9
2015-Aug-28 21:33N 37°40' W 122°40'1514.8
2015-Aug-28 20:33N 37°25' W 122°40'2020.0
2015-Aug-28 19:34N 37°05' W 122°45'1919.2
2015-Aug-28 18:33N 36°46' W 122°42'2020.0
2015-Aug-28 17:33N 36°28' W 122°31'2019.8
2015-Aug-28 16:33N 36°10' W 122°21'2019.8
2015-Aug-28 15:33N 35°52' W 122°11'4120.3
2015-Aug-28 13:33N 35°17' W 121°45'2020.0
2015-Aug-28 12:33N 35°00' W 121°32'2020.0
2015-Aug-28 11:33N 34°44' W 121°18'1919.1
2015-Aug-28 10:33N 34°29' W 121°03'2020.4
2015-Aug-28 09:33N 34°23' W 120°40'2420.7
2015-Aug-28 08:24N 34°17' W 120°11'2121.0
2015-Aug-28 07:23N 34°12' W 119°47'1720.7
2015-Aug-28 06:33N 34°07' W 119°27'2019.8
2015-Aug-28 05:33N 33°59' W 119°05'1312.5
2015-Aug-28 04:33N 33°53' W 118°52'1211.9
2015-Aug-28 03:33N 33°47' W 118°39'1211.8
2015-Aug-28 02:33N 33°41' W 118°27'1010.4
2015-Aug-28 01:33N 33°39' W 118°14'6 6.0
2015-Aug-28 00:33N 33°45' W 118°16'1 0.8
2015-Aug-27 23:28N 33°46' W 118°15'0 0.0
2015-Aug-27 22:31N 33°46' W 118°15'0 0.0
2015-Aug-27 21:31N 33°46' W 118°15'0 0.0
2015-Aug-27 20:28N 33°46' W 118°15'0 0.0
2015-Aug-27 19:31N 33°46' W 118°15'0 0.0
2015-Aug-27 18:31N 33°46' W 118°15'0 0.0
2015-Aug-27 17:31N 33°46' W 118°15'0 0.0
2015-Aug-27 16:31N 33°46' W 118°15'0 0.0
2015-Aug-27 15:31N 33°46' W 118°15'0 0.0
2015-Aug-27 14:31N 33°46' W 118°15'0 0.0
2015-Aug-27 13:31N 33°46' W 118°15'0 0.0
2015-Aug-27 12:31N 33°46' W 118°15'0 0.0
2015-Aug-27 11:31N 33°46' W 118°15'0 0.0
2015-Aug-27 10:31N 33°46' W 118°15'0 0.0
2015-Aug-27 09:31N 33°46' W 118°15'0 0.0
2015-Aug-27 08:31N 33°46' W 118°15'0 0.0
2015-Aug-27 07:31N 33°46' W 118°15'0 0.0
2015-Aug-27 06:31N 33°46' W 118°15'0 0.0
2015-Aug-27 05:31N 33°46' W 118°15'0 0.0
2015-Aug-27 04:31N 33°46' W 118°15'0 0.0
2015-Aug-27 03:31N 33°46' W 118°15'0 0.0
2015-Aug-27 02:31N 33°46' W 118°15'0 0.0
2015-Aug-27 01:31N 33°46' W 118°15'0 0.0
2015-Aug-27 00:31N 33°46' W 118°15'0 0.0
2015-Aug-26 23:31N 33°46' W 118°15'0 0.0
2015-Aug-26 22:31N 33°46' W 118°15'0 0.0
2015-Aug-26 21:31N 33°46' W 118°15'0 0.0
2015-Aug-26 20:31N 33°46' W 118°15'0 0.0
2015-Aug-26 19:31N 33°46' W 118°15'0 0.0
2015-Aug-26 18:31N 33°46' W 118°15'0 0.0
2015-Aug-26 17:31N 33°46' W 118°15'0 0.0
2015-Aug-26 16:31N 33°46' W 118°15'0 0.0
2015-Aug-26 15:31N 33°46' W 118°15'0 0.0
2015-Aug-26 14:31N 33°46' W 118°15'0 0.0
2015-Aug-26 13:31N 33°46' W 118°15'0 0.0
2015-Aug-26 12:31N 33°46' W 118°15'0 0.0
2015-Aug-26 11:31N 33°46' W 118°15'0 0.0
2015-Aug-26 10:31N 33°46' W 118°15'0 0.0
2015-Aug-26 09:31N 33°46' W 118°15'0 0.0
2015-Aug-26 08:31N 33°46' W 118°15'0 0.0
2015-Aug-26 07:31N 33°46' W 118°15'0 0.0
2015-Aug-26 06:31N 33°46' W 118°15'0 0.0
2015-Aug-26 05:31N 33°46' W 118°15'0 0.0
2015-Aug-26 04:31N 33°46' W 118°15'0 0.0
2015-Aug-26 03:31N 33°46' W 118°15'0 0.0
2015-Aug-26 02:31N 33°46' W 118°15'0 0.0
2015-Aug-26 01:31N 33°46' W 118°15'0 0.0
2015-Aug-26 00:31N 33°46' W 118°15'0 0.0
2015-Aug-25 23:31N 33°46' W 118°15'0 0.0
2015-Aug-25 22:31N 33°46' W 118°15'0 0.0
2015-Aug-25 21:31N 33°46' W 118°15'0 0.0
2015-Aug-25 20:31N 33°46' W 118°15'0 0.0
2015-Aug-25 19:31N 33°46' W 118°15'0 0.0
2015-Aug-25 18:31N 33°46' W 118°15'0 0.0
2015-Aug-25 17:31N 33°46' W 118°15'0 0.0
2015-Aug-25 16:31N 33°46' W 118°15'0 0.0
2015-Aug-25 15:31N 33°46' W 118°15'0 0.0
2015-Aug-25 14:31N 33°46' W 118°15'0 0.0
2015-Aug-25 13:31N 33°46' W 118°15'0 0.0
2015-Aug-25 12:31N 33°46' W 118°15'0 0.0
2015-Aug-25 11:31N 33°46' W 118°15'0 0.0
2015-Aug-25 10:31N 33°46' W 118°15'0 0.0
2015-Aug-25 09:31N 33°46' W 118°15'0 0.0
2015-Aug-25 08:31N 33°46' W 118°15'0 0.0
2015-Aug-25 07:31N 33°46' W 118°15'0 0.0
2015-Aug-25 06:31N 33°46' W 118°15'0 0.0
2015-Aug-25 05:31N 33°46' W 118°15'0 0.0
2015-Aug-25 04:31N 33°46' W 118°15'0 0.0
2015-Aug-25 03:31N 33°46' W 118°15'0 0.0
2015-Aug-25 02:31N 33°46' W 118°15'0 0.0
2015-Aug-25 01:31N 33°46' W 118°15'0 0.0
2015-Aug-25 00:31N 33°46' W 118°15'0 0.0
2015-Aug-24 23:31N 33°46' W 118°15'0 0.0
2015-Aug-24 22:31N 33°46' W 118°15'0 0.0
2015-Aug-24 21:31N 33°46' W 118°15'0 0.0
2015-Aug-24 20:31N 33°46' W 118°15'0 0.0
2015-Aug-24 19:31N 33°46' W 118°15'0 0.0
2015-Aug-24 18:31N 33°46' W 118°15'0 0.0
2015-Aug-24 17:31N 33°46' W 118°15'0 0.0
2015-Aug-24 16:31N 33°46' W 118°15'0 0.0
2015-Aug-24 15:31N 33°46' W 118°15'0 0.0
2015-Aug-24 14:31N 33°46' W 118°15'0 0.0
2015-Aug-24 13:31N 33°46' W 118°15'2 2.2
2015-Aug-24 12:33N 33°44' W 118°16'7 7.5
2015-Aug-24 11:33N 33°36' W 118°16'10 9.5
2015-Aug-24 10:33N 33°39' W 118°27'1110.7
2015-Aug-24 09:33N 33°44' W 118°38'1110.9
2015-Aug-24 08:33N 33°49' W 118°49'1111.3
2015-Aug-24 07:33N 33°55' W 119°01'1918.7
2015-Aug-24 06:33N 34°04' W 119°21'2120.7
2015-Aug-24 05:33N 34°09' W 119°45'2220.4
2015-Aug-24 04:30N 34°15' W 120°10'1920.2
2015-Aug-24 03:33N 34°20' W 120°33'1817.8
2015-Aug-24 02:33N 34°24' W 120°54'1514.8
2015-Aug-24 01:33N 34°29' W 121°10'2019.9
2015-Aug-24 00:33N 34°36' W 121°33'2019.9
2015-Aug-23 23:33N 34°44' W 121°55'2019.8
2015-Aug-23 22:33N 34°51' W 122°18'2220.1
2015-Aug-23 21:29N 34°59' W 122°43'1920.4
2015-Aug-23 20:33N 35°05' W 123°04'2020.3
2015-Aug-23 19:33N 35°13' W 123°27'2020.1
2015-Aug-23 18:33N 35°20' W 123°50'4920.2
2015-Aug-23 16:08N 35°37' W 124°46'1520.0
2015-Aug-23 15:23N 35°43' W 125°03'2020.0
2015-Aug-23 14:24N 35°53' W 125°24'1820.1
2015-Aug-23 13:30N 36°02' W 125°43'2319.9
2015-Aug-23 12:20N 36°14' W 126°08'1519.8
2015-Aug-23 11:33N 36°22' W 126°24'2020.0
2015-Aug-23 10:33N 36°32' W 126°46'2019.9
2015-Aug-23 09:33N 36°43' W 127°07'30219.7
2015-Aug-22 18:11N 39°29' W 132°28'2019.6
2015-Aug-22 17:10N 39°40' W 132°49'1920.3
2015-Aug-22 16:15N 39°50' W 133°10'  

Dump ship's entire track history